Time;durP1;ratioP1;P1;durP2;ratioP2;P2;SDS_P1;SDS_P2;PMS_P1;PMS_P2;Temp;Humidity;BMP_temperature;BMP_pressure;BME280_temperature;BME280_humidity;BME280_pressure;Samples;Min_cycle;Max_cycle;Signal;HPM_P1;HPM_P2
2023/11/21 00:00:25;;;;;;;14.20;6.80;;;;;;;;;;1030526;28;20014;-73
2023/11/21 00:00:56;;;;;;;5.57;5.07;;;;;;;;;;1031103;28;20022;-73
2023/11/21 00:01:26;;;;;;;6.18;5.60;;;;;;;;;;1031540;28;20035;-73
2023/11/21 00:01:57;;;;;;;43.72;8.38;;;;;;;;;;1035307;28;20405;-73
2023/11/21 00:02:28;;;;;;;13.07;4.40;;;;;;;;;;1034999;28;20104;-73
2023/11/21 00:02:58;;;;;;;18.23;7.53;;;;;;;;;;1031609;28;20048;-73
2023/11/21 00:03:29;;;;;;;3.78;3.50;;;;;;;;;;1031540;28;20023;-73
2023/11/21 00:04:01;;;;;;;8.98;6.60;;;;;;;;;;1034831;28;20021;-74
2023/11/21 00:04:31;;;;;;;19.05;6.20;;;;;;;;;;1030140;28;20478;-73
2023/11/21 00:05:03;;;;;;;12.52;9.90;;;;;;;;;;1030933;28;20057;-73
2023/11/21 00:05:35;;;;;;;15.52;7.75;;;;;;;;;;1031386;28;20061;-74
2023/11/21 00:06:08;;;;;;;4.90;3.88;;;;;;;;;;1031371;28;20030;-74
2023/11/21 00:06:40;;;;;;;3.80;3.20;;;;;;;;;;1030774;28;20018;-73
2023/11/21 00:07:11;;;;;;;11.25;4.50;;;;;;;;;;1034936;28;20565;-73
2023/11/21 00:07:42;;;;;;;16.42;6.53;;;;;;;;;;1033730;28;20026;-73
2023/11/21 00:08:12;;;;;;;10.57;7.63;;;;;;;;;;1035533;28;20494;-74
2023/11/21 00:08:43;;;;;;;14.75;10.10;;;;;;;;;;1034918;28;20084;-74
2023/11/21 00:09:18;;;;;;;11.57;7.72;;;;;;;;;;1031629;28;20033;-74
2023/11/21 00:09:48;;;;;;;13.68;5.90;;;;;;;;;;1030843;28;20524;-74
2023/11/21 00:10:19;;;;;;;7.32;3.83;;;;;;;;;;1031677;28;20029;-74
2023/11/21 00:10:50;;;;;;;14.68;7.00;;;;;;;;;;1031497;28;20057;-74
2023/11/21 00:11:21;;;;;;;21.77;8.40;;;;;;;;;;1031454;28;20029;-73
2023/11/21 00:11:51;;;;;;;18.67;7.50;;;;;;;;;;1031452;28;20041;-74
2023/11/21 00:12:22;;;;;;;6.50;5.32;;;;;;;;;;1031468;28;20467;-74
2023/11/21 00:12:54;;;;;;;13.40;7.28;;;;;;;;;;1035071;28;20401;-74
2023/11/21 00:13:25;;;;;;;11.60;7.63;;;;;;;;;;1034849;28;20029;-74
2023/11/21 00:13:55;;;;;;;6.10;4.95;;;;;;;;;;1031178;28;20022;-73
2023/11/21 00:14:26;;;;;;;11.02;5.10;;;;;;;;;;1031126;28;20030;-74
2023/11/21 00:14:57;;;;;;;3.38;3.08;;;;;;;;;;1031331;28;20026;-74
2023/11/21 00:15:28;;;;;;;7.65;6.82;;;;;;;;;;1031047;28;20076;-74
2023/11/21 00:15:59;;;;;;;12.02;6.38;;;;;;;;;;1031196;28;20089;-74
2023/11/21 00:16:29;;;;;;;2.35;2.15;;;;;;;;;;1030879;28;20031;-74
2023/11/21 00:16:59;;;;;;;6.63;3.50;;;;;;;;;;1031185;28;20534;-74
2023/11/21 00:17:30;;;;;;;4.80;4.50;;;;;;;;;;1031347;28;20081;-74
2023/11/21 00:18:00;;;;;;;7.93;4.50;;;;;;;;;;1030517;28;20077;-74
2023/11/21 00:18:31;;;;;;;3.72;3.40;;;;;;;;;;1031456;28;20022;-73
2023/11/21 00:19:01;;;;;;;6.15;3.40;;;;;;;;;;1031539;28;20029;-73
2023/11/21 00:19:33;;;;;;;3.85;3.55;;;;;;;;;;1031431;28;20029;-73
2023/11/21 00:20:06;;;;;;;7.60;2.90;;;;;;;;;;1031662;28;20379;-73
2023/11/21 00:20:36;;;;;;;7.57;4.00;;;;;;;;;;1031443;28;20018;-73
2023/11/21 00:21:07;;;;;;;7.75;3.13;;;;;;;;;;1031558;28;20497;-73
2023/11/21 00:21:37;;;;;;;7.50;4.85;;;;;;;;;;1031415;28;20050;-73
2023/11/21 00:22:08;;;;;;;5.05;4.13;;;;;;;;;;1031164;28;20356;-73
2023/11/21 00:22:40;;;;;;;7.80;5.57;;;;;;;;;;1034966;28;20589;-73
2023/11/21 00:23:10;;;;;;;3.33;3.05;;;;;;;;;;1035272;28;20486;-73
2023/11/21 00:23:41;;;;;;;4.05;3.75;;;;;;;;;;1035182;28;20113;-73
2023/11/21 00:24:13;;;;;;;2.33;2.22;;;;;;;;;;1030979;28;20026;-73
2023/11/21 00:24:44;;;;;;;3.97;3.28;;;;;;;;;;1030949;28;20030;-73
2023/11/21 00:25:15;;;;;;;8.40;4.90;;;;;;;;;;1031229;28;20113;-73
2023/11/21 00:25:45;;;;;;;3.08;2.88;;;;;;;;;;1031155;28;20030;-73
2023/11/21 00:26:16;;;;;;;6.60;4.32;;;;;;;;;;1031555;28;20026;-73
2023/11/21 00:26:48;;;;;;;6.03;4.57;;;;;;;;;;1031433;28;20411;-73
2023/11/21 00:27:18;;;;;;;12.23;5.28;;;;;;;;;;1031432;28;20109;-73
2023/11/21 00:27:49;;;;;;;3.80;3.60;;;;;;;;;;1031403;28;20396;-73
2023/11/21 00:28:19;;;;;;;6.82;5.93;;;;;;;;;;1031629;28;20030;-73
2023/11/21 00:28:50;;;;;;;28.45;8.68;;;;;;;;;;1031484;28;20034;-73
2023/11/21 00:29:20;;;;;;;10.48;5.85;;;;;;;;;;1031349;28;20034;-73
2023/11/21 00:29:51;;;;;;;4.03;3.10;;;;;;;;;;1031627;28;20015;-73
2023/11/21 00:30:22;;;;;;;5.32;4.75;;;;;;;;;;1031486;28;20026;-73
2023/11/21 00:30:53;;;;;;;14.00;7.20;;;;;;;;;;1031431;28;20364;-74
2023/11/21 00:31:24;;;;;;;5.07;4.60;;;;;;;;;;1030842;28;20030;-74
2023/11/21 00:31:54;;;;;;;11.07;7.63;;;;;;;;;;1031364;28;20038;-74
2023/11/21 00:32:25;;;;;;;16.08;3.53;;;;;;;;;;1031348;28;20475;-74
2023/11/21 00:32:55;;;;;;;3.00;2.80;;;;;;;;;;1031514;28;20372;-74
2023/11/21 00:33:27;;;;;;;7.10;6.07;;;;;;;;;;1031381;28;20422;-74
2023/11/21 00:33:57;;;;;;;4.53;2.75;;;;;;;;;;1031539;28;20434;-74
2023/11/21 00:34:28;;;;;;;4.75;4.00;;;;;;;;;;1031392;28;20018;-74
2023/11/21 00:34:59;;;;;;;6.20;4.53;;;;;;;;;;1031359;28;20066;-74
2023/11/21 00:35:29;;;;;;;6.82;4.50;;;;;;;;;;1031368;28;20029;-74
2023/11/21 00:36:00;;;;;;;23.23;5.63;;;;;;;;;;1031522;28;20033;-74
2023/11/21 00:36:33;;;;;;;6.07;4.47;;;;;;;;;;1030330;28;20117;-74
2023/11/21 00:37:04;;;;;;;7.85;6.28;;;;;;;;;;1031389;28;20018;-74
2023/11/21 00:37:34;;;;;;;6.22;4.97;;;;;;;;;;1034750;28;20022;-74
2023/11/21 00:38:05;;;;;;;6.95;3.30;;;;;;;;;;1035394;28;20037;-74
2023/11/21 00:38:36;;;;;;;4.32;3.05;;;;;;;;;;1035085;28;20058;-74
2023/11/21 00:39:07;;;;;;;8.02;5.05;;;;;;;;;;1035163;28;20402;-74
2023/11/21 00:39:37;;;;;;;9.98;4.18;;;;;;;;;;1031403;28;20109;-74
2023/11/21 00:40:09;;;;;;;5.65;3.08;;;;;;;;;;1031620;28;20430;-74
2023/11/21 00:40:39;;;;;;;10.00;6.93;;;;;;;;;;1030775;28;20081;-74
2023/11/21 00:41:10;;;;;;;31.13;4.82;;;;;;;;;;1031524;28;20015;-74
2023/11/21 00:41:40;;;;;;;3.20;2.92;;;;;;;;;;1031393;28;20393;-74
2023/11/21 00:42:11;;;;;;;6.30;5.82;;;;;;;;;;1031615;28;20391;-74
2023/11/21 00:42:41;;;;;;;5.20;4.78;;;;;;;;;;1031182;28;20042;-74
2023/11/21 00:43:12;;;;;;;7.60;5.75;;;;;;;;;;1035177;28;20025;-74
2023/11/21 00:43:44;;;;;;;9.32;5.32;;;;;;;;;;1035093;28;20065;-74
2023/11/21 00:44:14;;;;;;;3.83;3.50;;;;;;;;;;1035249;28;20029;-74
2023/11/21 00:44:45;;;;;;;6.68;5.60;;;;;;;;;;1034824;28;20108;-74
2023/11/21 00:45:16;;;;;;;5.85;5.30;;;;;;;;;;1031432;28;20030;-74
2023/11/21 00:45:48;;;;;;;4.15;3.38;;;;;;;;;;1035061;28;20109;-74
2023/11/21 00:46:19;;;;;;;3.13;2.83;;;;;;;;;;1031153;28;20541;-74
2023/11/21 00:46:50;;;;;;;2.75;2.55;;;;;;;;;;1030400;28;20089;-74
2023/11/21 00:47:20;;;;;;;5.95;4.95;;;;;;;;;;1030582;28;21233;-74
2023/11/21 00:47:51;;;;;;;4.20;3.78;;;;;;;;;;1031180;28;20089;-74
2023/11/21 00:48:21;;;;;;;4.13;3.50;;;;;;;;;;1031505;28;20099;-74
2023/11/21 00:48:53;;;;;;;1.25;1.00;;;;;;;;;;1031442;28;20061;-74
2023/11/21 00:49:24;;;;;;;5.68;5.13;;;;;;;;;;1034307;28;20021;-74
2023/11/21 00:49:54;;;;;;;7.90;6.15;;;;;;;;;;1035112;28;20018;-74
2023/11/21 00:50:25;;;;;;;7.72;4.88;;;;;;;;;;1035164;28;20018;-74
2023/11/21 00:50:56;;;;;;;20.88;3.72;;;;;;;;;;1035235;28;20026;-74
2023/11/21 00:51:26;;;;;;;7.75;6.22;;;;;;;;;;1034604;28;20149;-74
2023/11/21 00:51:57;;;;;;;11.15;3.63;;;;;;;;;;1034837;28;20030;-74
2023/11/21 00:52:28;;;;;;;5.20;3.67;;;;;;;;;;1034743;28;20108;-74
2023/11/21 00:52:58;;;;;;;3.33;3.08;;;;;;;;;;1035103;28;20394;-74
2023/11/21 00:53:29;;;;;;;4.25;3.95;;;;;;;;;;1030952;28;20036;-74
2023/11/21 00:53:59;;;;;;;4.30;3.90;;;;;;;;;;1034891;28;20033;-74
2023/11/21 00:54:30;;;;;;;9.10;8.20;;;;;;;;;;1035170;28;20105;-74
2023/11/21 00:55:01;;;;;;;9.07;6.45;;;;;;;;;;1035188;28;20058;-74
2023/11/21 00:55:31;;;;;;;6.28;5.65;;;;;;;;;;1030733;28;20057;-74
2023/11/21 00:56:02;;;;;;;10.73;2.53;;;;;;;;;;1031014;28;20409;-74
2023/11/21 00:56:33;;;;;;;5.88;5.38;;;;;;;;;;1031073;28;20109;-74
2023/11/21 00:57:04;;;;;;;6.80;2.17;;;;;;;;;;1031317;28;20417;-74
2023/11/21 00:57:35;;;;;;;13.13;4.78;;;;;;;;;;1034601;28;20061;-74
2023/11/21 00:58:06;;;;;;;2.78;2.00;;;;;;;;;;1031538;28;20490;-74
2023/11/21 00:58:37;;;;;;;3.75;3.45;;;;;;;;;;1034930;28;20021;-74
2023/11/21 00:59:07;;;;;;;29.23;5.78;;;;;;;;;;1035270;28;20033;-74
2023/11/21 00:59:38;;;;;;;10.73;1.77;;;;;;;;;;1030773;28;20030;-74
2023/11/21 01:00:16;;;;;;;4.93;4.53;;;;;;;;;;1031136;28;20033;-74
2023/11/21 01:00:48;;;;;;;2.80;2.58;;;;;;;;;;1030104;28;20056;-74
2023/11/21 01:01:19;;;;;;;11.18;3.00;;;;;;;;;;1031176;28;20030;-73
2023/11/21 01:01:49;;;;;;;6.95;3.45;;;;;;;;;;1031140;28;20450;-73
2023/11/21 01:02:20;;;;;;;22.05;3.92;;;;;;;;;;1031432;28;20077;-73
2023/11/21 01:02:50;;;;;;;2.70;2.47;;;;;;;;;;1031386;28;20478;-73
2023/11/21 01:03:21;;;;;;;3.08;2.80;;;;;;;;;;1035031;28;20402;-74
2023/11/21 01:03:52;;;;;;;2.45;2.15;;;;;;;;;;1034417;28;20147;-74
2023/11/21 01:04:22;;;;;;;2.03;1.92;;;;;;;;;;1034961;28;20421;-74
2023/11/21 01:04:53;;;;;;;3.47;3.22;;;;;;;;;;1030666;28;20061;-74
2023/11/21 01:05:23;;;;;;;5.00;4.07;;;;;;;;;;1031099;28;20026;-74
2023/11/21 01:05:54;;;;;;;6.50;3.97;;;;;;;;;;1027028;28;20026;-73
2023/11/21 01:06:24;;;;;;;2.40;2.28;;;;;;;;;;1026584;28;20030;-73
2023/11/21 01:06:55;;;;;;;4.22;3.65;;;;;;;;;;1031044;28;20030;-73
2023/11/21 01:07:27;;;;;;;6.60;4.72;;;;;;;;;;1030052;28;20054;-73
2023/11/21 01:07:57;;;;;;;11.38;4.65;;;;;;;;;;1029640;28;20078;-73
2023/11/21 01:08:28;;;;;;;4.00;2.28;;;;;;;;;;1031114;28;20026;-73
2023/11/21 01:08:59;;;;;;;7.43;4.65;;;;;;;;;;1030847;28;20066;-73
2023/11/21 01:09:30;;;;;;;5.18;4.43;;;;;;;;;;1030831;28;20034;-73
2023/11/21 01:10:00;;;;;;;11.75;3.72;;;;;;;;;;1026988;28;20058;-73
2023/11/21 01:10:31;;;;;;;2.63;2.42;;;;;;;;;;1026953;28;20032;-73
2023/11/21 01:11:01;;;;;;;4.60;3.92;;;;;;;;;;1028106;28;20010;-73
2023/11/21 01:11:35;;;;;;;2.13;2.00;;;;;;;;;;1026820;28;20033;-73
2023/11/21 01:12:06;;;;;;;2.15;2.00;;;;;;;;;;1030947;28;20030;-73
2023/11/21 01:12:37;;;;;;;2.40;2.22;;;;;;;;;;1030896;28;20022;-73
2023/11/21 01:13:08;;;;;;;4.38;4.03;;;;;;;;;;1031131;28;20033;-73
2023/11/21 01:13:39;;;;;;;8.43;2.83;;;;;;;;;;1030865;28;20511;-73
2023/11/21 01:14:10;;;;;;;3.92;3.60;;;;;;;;;;1035177;28;20026;-73
2023/11/21 01:14:41;;;;;;;3.38;2.92;;;;;;;;;;1034835;28;20028;-73
2023/11/21 01:15:12;;;;;;;2.13;2.00;;;;;;;;;;1035005;28;20438;-73
2023/11/21 01:15:42;;;;;;;8.07;3.15;;;;;;;;;;1031180;28;20126;-73
2023/11/21 01:16:12;;;;;;;5.75;4.93;;;;;;;;;;1031405;28;20022;-73
2023/11/21 01:16:44;;;;;;;7.38;4.47;;;;;;;;;;1030957;28;20026;-73
2023/11/21 01:17:15;;;;;;;3.88;3.05;;;;;;;;;;1030829;28;20078;-73
2023/11/21 01:17:47;;;;;;;6.60;3.35;;;;;;;;;;1030543;28;20014;-73
2023/11/21 01:18:17;;;;;;;3.17;2.53;;;;;;;;;;1031406;28;20026;-73
2023/11/21 01:18:48;;;;;;;3.15;2.42;;;;;;;;;;1034849;28;20029;-73
2023/11/21 01:19:18;;;;;;;29.60;8.68;;;;;;;;;;1034923;28;20034;-73
2023/11/21 01:19:49;;;;;;;2.50;2.28;;;;;;;;;;1034799;28;20524;-73
2023/11/21 01:20:19;;;;;;;4.97;4.50;;;;;;;;;;1031102;28;20320;-73
2023/11/21 01:20:50;;;;;;;3.97;3.60;;;;;;;;;;1031084;28;20050;-73
2023/11/21 01:21:20;;;;;;;17.50;5.15;;;;;;;;;;1030950;28;20045;-74
2023/11/21 01:21:52;;;;;;;15.85;5.55;;;;;;;;;;1030609;28;20037;-73
2023/11/21 01:22:25;;;;;;;5.20;4.35;;;;;;;;;;1030983;28;20033;-73
2023/11/21 01:22:56;;;;;;;8.32;6.28;;;;;;;;;;1031187;28;20026;-74
2023/11/21 01:23:27;;;;;;;4.75;3.10;;;;;;;;;;1030775;28;20038;-73
2023/11/21 01:23:57;;;;;;;7.35;6.07;;;;;;;;;;1029990;28;20114;-73
2023/11/21 01:24:28;;;;;;;17.55;6.47;;;;;;;;;;1031079;28;20448;-73
2023/11/21 01:24:58;;;;;;;7.25;3.50;;;;;;;;;;1031289;28;20184;-73
2023/11/21 01:25:28;;;;;;;4.00;3.38;;;;;;;;;;1033737;28;21272;-73
2023/11/21 01:25:59;;;;;;;10.13;6.18;;;;;;;;;;1034529;28;20033;-73
2023/11/21 01:26:29;;;;;;;21.85;8.65;;;;;;;;;;1030772;28;20114;-73
2023/11/21 01:27:00;;;;;;;13.15;7.00;;;;;;;;;;1030948;28;20414;-73
2023/11/21 01:27:30;;;;;;;4.50;4.05;;;;;;;;;;1028741;28;20407;-73
2023/11/21 01:28:01;;;;;;;5.18;3.90;;;;;;;;;;1025846;28;20482;-73
2023/11/21 01:28:32;;;;;;;2.90;1.98;;;;;;;;;;1030559;28;20569;-73
2023/11/21 01:29:02;;;;;;;5.65;4.47;;;;;;;;;;1025972;28;20026;-73
2023/11/21 01:29:34;;;;;;;13.20;4.50;;;;;;;;;;1021480;28;20134;-73
2023/11/21 01:30:07;;;;;;;4.97;4.07;;;;;;;;;;1026496;28;20155;-73
2023/11/21 01:30:37;;;;;;;5.57;5.18;;;;;;;;;;1026168;28;20482;-74
2023/11/21 01:31:08;;;;;;;7.43;3.40;;;;;;;;;;1030552;28;20065;-74
2023/11/21 01:31:38;;;;;;;3.60;3.17;;;;;;;;;;1028102;28;20036;-73
2023/11/21 01:32:09;;;;;;;1.60;1.52;;;;;;;;;;1028080;28;20604;-74
2023/11/21 01:32:40;;;;;;;5.78;3.42;;;;;;;;;;1029670;28;20469;-73
2023/11/21 01:33:10;;;;;;;5.55;4.35;;;;;;;;;;1034151;28;20033;-73
2023/11/21 01:33:41;;;;;;;3.10;1.70;;;;;;;;;;1034312;28;20049;-73
2023/11/21 01:34:11;;;;;;;3.92;3.58;;;;;;;;;;1033957;28;20026;-73
2023/11/21 01:34:42;;;;;;;11.32;4.60;;;;;;;;;;1030612;28;20034;-73
2023/11/21 01:35:13;;;;;;;4.95;4.25;;;;;;;;;;1033387;28;20081;-74
2023/11/21 01:35:43;;;;;;;7.30;6.13;;;;;;;;;;1033588;28;20037;-74
2023/11/21 01:36:14;;;;;;;5.35;4.80;;;;;;;;;;1034372;28;20026;-74
2023/11/21 01:36:45;;;;;;;4.03;2.67;;;;;;;;;;1034666;28;20139;-73
2023/11/21 01:37:17;;;;;;;5.65;5.13;;;;;;;;;;1029294;28;20019;-73
2023/11/21 01:37:48;;;;;;;5.50;2.35;;;;;;;;;;1029473;28;20380;-74
2023/11/21 01:38:18;;;;;;;5.15;1.95;;;;;;;;;;1029501;28;20093;-73
2023/11/21 01:38:49;;;;;;;6.60;2.72;;;;;;;;;;1029698;28;20105;-73
2023/11/21 01:39:23;;;;;;;1.63;1.40;;;;;;;;;;1030485;28;20145;-73
2023/11/21 01:39:54;;;;;;;3.92;3.25;;;;;;;;;;1030493;28;20106;-73
2023/11/21 01:40:25;;;;;;;8.45;2.50;;;;;;;;;;1030559;28;20483;-73
2023/11/21 01:40:55;;;;;;;3.83;3.15;;;;;;;;;;1032109;28;20026;-73
2023/11/21 01:41:27;;;;;;;26.10;6.55;;;;;;;;;;1036158;28;20050;-74
2023/11/21 01:42:01;;;;;;;4.20;3.00;;;;;;;;;;1034243;28;20521;-73
2023/11/21 01:42:31;;;;;;;7.70;2.67;;;;;;;;;;1032018;28;20023;-73
2023/11/21 01:43:05;;;;;;;5.97;5.30;;;;;;;;;;1031098;28;20501;-73
2023/11/21 01:43:35;;;;;;;5.10;3.30;;;;;;;;;;1032098;28;20025;-73
2023/11/21 01:44:09;;;;;;;5.95;3.20;;;;;;;;;;1031059;28;20026;-73
2023/11/21 01:44:39;;;;;;;5.97;3.42;;;;;;;;;;1034845;28;20160;-73
2023/11/21 01:45:12;;;;;;;2.28;2.08;;;;;;;;;;1031441;28;20034;-73
2023/11/21 01:45:45;;;;;;;9.80;4.18;;;;;;;;;;1026726;28;20015;-73
2023/11/21 01:46:15;;;;;;;3.58;2.88;;;;;;;;;;1028270;28;20029;-72
2023/11/21 01:46:48;;;;;;;6.57;4.85;;;;;;;;;;1028750;28;20057;-73
2023/11/21 01:47:19;;;;;;;3.95;3.22;;;;;;;;;;1032990;28;20038;-73
2023/11/21 01:47:51;;;;;;;5.75;2.83;;;;;;;;;;1035716;28;20023;-73
2023/11/21 01:48:22;;;;;;;7.50;5.93;;;;;;;;;;1035772;28;20251;-73
2023/11/21 01:48:54;;;;;;;3.72;2.63;;;;;;;;;;1033380;28;20458;-73
2023/11/21 01:49:24;;;;;;;5.15;4.32;;;;;;;;;;1031845;28;20029;-74
2023/11/21 01:49:55;;;;;;;21.58;7.72;;;;;;;;;;1033498;28;20069;-73
2023/11/21 01:50:25;;;;;;;5.60;2.83;;;;;;;;;;1032651;28;20084;-73
2023/11/21 01:50:56;;;;;;;14.60;5.10;;;;;;;;;;1032608;28;20026;-73
2023/11/21 01:51:26;;;;;;;9.43;5.60;;;;;;;;;;1034792;28;20071;-74
2023/11/21 01:51:57;;;;;;;18.00;7.63;;;;;;;;;;1035366;28;20113;-73
2023/11/21 01:52:27;;;;;;;13.80;5.70;;;;;;;;;;1034399;28;20565;-73
2023/11/21 01:52:58;;;;;;;14.80;6.43;;;;;;;;;;1033936;28;20029;-73
2023/11/21 01:53:28;;;;;;;16.77;5.18;;;;;;;;;;1029906;28;20034;-74
2023/11/21 01:53:59;;;;;;;8.55;5.78;;;;;;;;;;1029914;28;20117;-74
2023/11/21 01:54:32;;;;;;;4.40;4.00;;;;;;;;;;1029881;28;20023;-74
2023/11/21 01:55:04;;;;;;;7.57;6.68;;;;;;;;;;1030200;28;20081;-74
2023/11/21 01:55:35;;;;;;;8.68;5.85;;;;;;;;;;1029747;28;20302;-73
2023/11/21 01:56:07;;;;;;;5.88;4.18;;;;;;;;;;1031094;28;21580;-74
2023/11/21 01:56:39;;;;;;;11.77;5.18;;;;;;;;;;1034212;28;20532;-74
2023/11/21 01:57:09;;;;;;;30.17;9.27;;;;;;;;;;1029377;28;20034;-74
2023/11/21 01:57:40;;;;;;;4.00;2.63;;;;;;;;;;1026572;28;20122;-73
2023/11/21 01:58:12;;;;;;;7.20;6.18;;;;;;;;;;1027065;28;20066;-74
2023/11/21 01:58:43;;;;;;;10.15;4.30;;;;;;;;;;1026606;28;20030;-73
2023/11/21 01:59:17;;;;;;;6.65;2.03;;;;;;;;;;1031500;28;20125;-73
2023/11/21 01:59:48;;;;;;;6.93;4.20;;;;;;;;;;1031233;28;20518;-74
2023/11/21 02:00:19;;;;;;;7.93;5.07;;;;;;;;;;1031283;28;20061;-74
2023/11/21 02:00:51;;;;;;;20.00;6.80;;;;;;;;;;1030454;28;20041;-74
2023/11/21 02:01:21;;;;;;;43.30;5.18;;;;;;;;;;1027375;28;20109;-74
2023/11/21 02:01:52;;;;;;;16.98;4.07;;;;;;;;;;1031168;28;20426;-74
2023/11/21 02:02:22;;;;;;;6.68;4.50;;;;;;;;;;1030952;28;20030;-73
2023/11/21 02:02:53;;;;;;;30.88;7.13;;;;;;;;;;1032398;28;20021;-73
2023/11/21 02:03:24;;;;;;;21.00;12.50;;;;;;;;;;1030648;28;20023;-73
2023/11/21 02:03:55;;;;;;;9.88;5.20;;;;;;;;;;1030822;28;20437;-73
2023/11/21 02:04:26;;;;;;;5.50;4.95;;;;;;;;;;1029695;28;20467;-73
2023/11/21 02:04:56;;;;;;;9.32;5.20;;;;;;;;;;1030407;28;20026;-73
2023/11/21 02:05:27;;;;;;;15.90;6.22;;;;;;;;;;1031294;28;20510;-73
2023/11/21 02:05:58;;;;;;;4.10;3.75;;;;;;;;;;1031355;28;20030;-73
2023/11/21 02:06:31;;;;;;;13.18;4.68;;;;;;;;;;1031122;28;20499;-73
2023/11/21 02:07:02;;;;;;;8.20;4.05;;;;;;;;;;1029724;28;20088;-73
2023/11/21 02:07:32;;;;;;;5.65;4.70;;;;;;;;;;1034104;28;20025;-73
2023/11/21 02:08:03;;;;;;;12.30;5.10;;;;;;;;;;1034295;28;20033;-73
2023/11/21 02:08:34;;;;;;;6.57;5.13;;;;;;;;;;1034191;28;20030;-73
2023/11/21 02:09:08;;;;;;;13.32;3.67;;;;;;;;;;1030826;28;20018;-73
2023/11/21 02:09:42;;;;;;;6.25;4.25;;;;;;;;;;1027080;28;20030;-73
2023/11/21 02:10:14;;;;;;;10.05;5.88;;;;;;;;;;1026341;28;20070;-73
2023/11/21 02:10:45;;;;;;;5.28;4.60;;;;;;;;;;1024497;28;20057;-73
2023/11/21 02:11:16;;;;;;;6.72;3.30;;;;;;;;;;1025784;28;20027;-73
2023/11/21 02:11:47;;;;;;;14.82;6.70;;;;;;;;;;1029104;28;20108;-73
2023/11/21 02:12:17;;;;;;;4.05;3.75;;;;;;;;;;1029725;28;20471;-73
2023/11/21 02:12:50;;;;;;;7.75;5.05;;;;;;;;;;1027316;28;20030;-73
2023/11/21 02:13:20;;;;;;;17.80;6.70;;;;;;;;;;1028409;28;20031;-73
2023/11/21 02:13:53;;;;;;;8.23;6.78;;;;;;;;;;1026922;28;20501;-73
2023/11/21 02:14:26;;;;;;;5.82;4.82;;;;;;;;;;1022540;28;20030;-73
2023/11/21 02:14:57;;;;;;;6.38;3.90;;;;;;;;;;1025659;28;20046;-73
2023/11/21 02:15:28;;;;;;;7.95;3.95;;;;;;;;;;1025565;28;20569;-73
2023/11/21 02:15:59;;;;;;;6.75;4.97;;;;;;;;;;1024175;28;20030;-73
2023/11/21 02:16:31;;;;;;;14.90;6.57;;;;;;;;;;1023560;28;20027;-74
2023/11/21 02:17:03;;;;;;;9.60;7.13;;;;;;;;;;1025330;28;20042;-73
2023/11/21 02:17:33;;;;;;;8.63;5.97;;;;;;;;;;1027360;28;20511;-73
2023/11/21 02:18:05;;;;;;;4.72;4.22;;;;;;;;;;1031130;28;20100;-72
2023/11/21 02:18:36;;;;;;;5.38;4.43;;;;;;;;;;1033602;28;20070;-72
2023/11/21 02:19:09;;;;;;;23.88;6.07;;;;;;;;;;1033297;28;20025;-74
2023/11/21 02:19:39;;;;;;;19.85;11.40;;;;;;;;;;1028275;28;20080;-73
2023/11/21 02:20:15;;;;;;;18.90;9.40;;;;;;;;;;1030351;28;20542;-73
2023/11/21 02:20:47;;;;;;;8.55;3.63;;;;;;;;;;1030714;28;20065;-73
2023/11/21 02:21:19;;;;;;;5.85;3.25;;;;;;;;;;1029050;28;20053;-74
2023/11/21 02:21:49;;;;;;;24.30;7.97;;;;;;;;;;1030686;28;20034;-73
2023/11/21 02:22:20;;;;;;;14.50;6.10;;;;;;;;;;1030442;28;20057;-76
2023/11/21 02:22:57;;;;;;;15.07;9.82;;;;;;;;;;1032079;28;20026;-73
2023/11/21 02:23:28;;;;;;;14.73;5.18;;;;;;;;;;1029667;28;20038;-73
2023/11/21 02:24:00;;;;;;;4.57;4.22;;;;;;;;;;1030436;28;20035;-73
2023/11/21 02:24:31;;;;;;;21.95;7.30;;;;;;;;;;1029299;28;20019;-73
2023/11/21 02:25:02;;;;;;;13.13;7.13;;;;;;;;;;1026352;28;20057;-73
2023/11/21 02:25:33;;;;;;;6.47;5.88;;;;;;;;;;1026432;28;20371;-73
2023/11/21 02:26:04;;;;;;;5.80;3.28;;;;;;;;;;1030412;28;20072;-73
2023/11/21 02:26:35;;;;;;;11.57;4.25;;;;;;;;;;1031528;28;20100;-73
2023/11/21 02:27:06;;;;;;;4.32;3.92;;;;;;;;;;1030426;28;20030;-74
2023/11/21 02:27:37;;;;;;;4.85;3.75;;;;;;;;;;1030272;28;20049;-73
2023/11/21 02:28:07;;;;;;;2.85;2.67;;;;;;;;;;1030596;28;20140;-73
2023/11/21 02:28:38;;;;;;;6.95;5.00;;;;;;;;;;1030389;28;20022;-74
2023/11/21 02:29:11;;;;;;;8.15;6.18;;;;;;;;;;1030174;28;20022;-74
2023/11/21 02:29:42;;;;;;;8.77;4.72;;;;;;;;;;1029682;28;20030;-73
2023/11/21 02:30:13;;;;;;;25.25;5.25;;;;;;;;;;1030188;28;20426;-73
2023/11/21 02:30:44;;;;;;;16.52;5.40;;;;;;;;;;1029675;28;20030;-73
2023/11/21 02:31:14;;;;;;;4.65;3.38;;;;;;;;;;1030077;28;20053;-74
2023/11/21 02:31:47;;;;;;;3.95;3.65;;;;;;;;;;1030502;28;20479;-74
2023/11/21 02:32:19;;;;;;;21.65;6.03;;;;;;;;;;1029559;28;20117;-73
2023/11/21 02:32:49;;;;;;;4.25;2.15;;;;;;;;;;1030721;28;20042;-73
2023/11/21 02:33:20;;;;;;;16.38;5.25;;;;;;;;;;1029993;28;20041;-73
2023/11/21 02:33:50;;;;;;;9.48;4.03;;;;;;;;;;1025828;28;20023;-73
2023/11/21 02:34:22;;;;;;;14.65;4.13;;;;;;;;;;1024883;28;20093;-73
2023/11/21 02:34:55;;;;;;;4.25;3.95;;;;;;;;;;1029801;28;20037;-74
2023/11/21 02:35:26;;;;;;;3.67;3.13;;;;;;;;;;1029065;28;20029;-73
2023/11/21 02:35:56;;;;;;;7.88;6.57;;;;;;;;;;1030829;28;20030;-73
2023/11/21 02:36:27;;;;;;;3.67;3.45;;;;;;;;;;1029882;28;20032;-73
2023/11/21 02:36:57;;;;;;;3.58;3.28;;;;;;;;;;1030854;28;20577;-73
2023/11/21 02:37:28;;;;;;;15.23;6.93;;;;;;;;;;1029671;28;20026;-73
2023/11/21 02:37:58;;;;;;;3.50;3.28;;;;;;;;;;1027295;28;20882;-73
2023/11/21 02:38:29;;;;;;;6.50;2.58;;;;;;;;;;1033147;28;21033;-73
2023/11/21 02:38:59;;;;;;;5.50;3.05;;;;;;;;;;1034513;28;20497;-73
2023/11/21 02:39:29;;;;;;;4.45;4.13;;;;;;;;;;1030231;28;20026;-73
2023/11/21 02:40:00;;;;;;;8.07;4.25;;;;;;;;;;1032326;28;20018;-74
2023/11/21 02:40:31;;;;;;;4.13;3.67;;;;;;;;;;1033939;28;20498;-73
2023/11/21 02:41:01;;;;;;;5.13;3.45;;;;;;;;;;1030436;28;20183;-73
2023/11/21 02:41:32;;;;;;;6.10;5.15;;;;;;;;;;1033920;28;20112;-73
2023/11/21 02:42:02;;;;;;;3.33;2.33;;;;;;;;;;1030380;28;20018;-73
2023/11/21 02:42:34;;;;;;;4.68;1.90;;;;;;;;;;1030477;28;20044;-73
2023/11/21 02:43:05;;;;;;;4.03;2.83;;;;;;;;;;1030100;28;20130;-73
2023/11/21 02:43:38;;;;;;;6.68;3.70;;;;;;;;;;1030384;28;20527;-73
2023/11/21 02:44:09;;;;;;;26.40;4.88;;;;;;;;;;1029516;28;20502;-73
2023/11/21 02:44:43;;;;;;;10.88;4.07;;;;;;;;;;1027951;28;20533;-73
2023/11/21 02:45:16;;;;;;;5.00;1.83;;;;;;;;;;1025467;28;20026;-73
2023/11/21 02:45:46;;;;;;;6.90;4.38;;;;;;;;;;1029480;28;20135;-74
2023/11/21 02:46:17;;;;;;;4.15;3.50;;;;;;;;;;1033830;28;20036;-74
2023/11/21 02:46:47;;;;;;;7.32;4.10;;;;;;;;;;1029598;28;20033;-74
2023/11/21 02:47:18;;;;;;;7.75;4.60;;;;;;;;;;1025436;28;20030;-73
2023/11/21 02:47:50;;;;;;;4.50;2.22;;;;;;;;;;1025664;28;20612;-75
2023/11/21 02:48:23;;;;;;;6.32;5.03;;;;;;;;;;1027491;28;20027;-74
2023/11/21 02:48:54;;;;;;;20.83;6.95;;;;;;;;;;1029021;28;20062;-74
2023/11/21 02:49:28;;;;;;;11.85;8.35;;;;;;;;;;1032428;28;20043;-74
2023/11/21 02:49:58;;;;;;;5.38;4.72;;;;;;;;;;1033249;28;20033;-74
2023/11/21 02:50:29;;;;;;;4.43;4.03;;;;;;;;;;1032856;28;20480;-74
2023/11/21 02:51:00;;;;;;;3.08;2.33;;;;;;;;;;1032546;28;20159;-74
2023/11/21 02:51:30;;;;;;;3.00;2.75;;;;;;;;;;1032679;28;20059;-74
2023/11/21 02:52:01;;;;;;;20.58;2.55;;;;;;;;;;1032748;28;20030;-74
2023/11/21 02:52:33;;;;;;;4.20;3.80;;;;;;;;;;1033630;28;20069;-74
2023/11/21 02:53:05;;;;;;;8.48;3.78;;;;;;;;;;1027685;28;20073;-74
2023/11/21 02:53:38;;;;;;;24.80;7.90;;;;;;;;;;1027700;28;20077;-74
2023/11/21 02:54:09;;;;;;;3.33;3.03;;;;;;;;;;1027331;28;20038;-74
2023/11/21 02:54:41;;;;;;;4.35;3.47;;;;;;;;;;1028740;28;20030;-73
2023/11/21 02:55:12;;;;;;;6.20;4.72;;;;;;;;;;1032694;28;20650;-75
2023/11/21 02:55:42;;;;;;;7.28;5.47;;;;;;;;;;1031256;28;20136;-74
2023/11/21 02:56:13;;;;;;;10.35;4.82;;;;;;;;;;1032832;28;20401;-74
2023/11/21 02:56:46;;;;;;;7.72;6.85;;;;;;;;;;1029030;28;20034;-74
2023/11/21 02:57:17;;;;;;;6.93;5.05;;;;;;;;;;1028826;28;20030;-74
2023/11/21 02:57:47;;;;;;;13.90;6.95;;;;;;;;;;1025769;28;20104;-74
2023/11/21 02:58:18;;;;;;;7.53;3.85;;;;;;;;;;1022511;28;20023;-74
2023/11/21 02:58:48;;;;;;;19.45;7.20;;;;;;;;;;1023444;28;20073;-74
2023/11/21 02:59:19;;;;;;;19.63;7.00;;;;;;;;;;1021406;28;20480;-75
2023/11/21 02:59:52;;;;;;;9.40;6.78;;;;;;;;;;1025027;28;20030;-74
2023/11/21 03:00:24;;;;;;;5.40;3.30;;;;;;;;;;1028951;28;20026;-73
2023/11/21 03:00:54;;;;;;;5.32;3.60;;;;;;;;;;1028903;28;20034;-74
2023/11/21 03:01:25;;;;;;;9.48;5.22;;;;;;;;;;1030152;28;20026;-73
2023/11/21 03:01:56;;;;;;;7.90;5.03;;;;;;;;;;1027555;28;20405;-73
2023/11/21 03:02:27;;;;;;;8.45;6.68;;;;;;;;;;1028444;28;20508;-74
2023/11/21 03:02:58;;;;;;;11.80;6.05;;;;;;;;;;1029776;28;20509;-74
2023/11/21 03:03:28;;;;;;;5.32;3.70;;;;;;;;;;1027311;28;20038;-72
2023/11/21 03:03:59;;;;;;;7.43;3.85;;;;;;;;;;1029135;28;20026;-73
2023/11/21 03:04:32;;;;;;;6.22;2.85;;;;;;;;;;1026934;28;20034;-73
2023/11/21 03:05:04;;;;;;;5.82;3.50;;;;;;;;;;1028664;28;20433;-73
2023/11/21 03:05:36;;;;;;;13.38;3.72;;;;;;;;;;1027114;28;20026;-73